Time;durP1;ratioP1;P1;durP2;ratioP2;P2;SDS_P1;SDS_P2;PMS_P1;PMS_P2;Temp;Humidity;BMP_temperature;BMP_pressure;BME280_temperature;BME280_humidity;BME280_pressure;Samples;Min_cycle;Max_cycle;Signal;HPM_P1;HPM_P2
2022/03/07 00:01:47;;;;;;;19.30;8.27;;;;;;;-2.83;100.00;102804.22;4908404;28;20442;-71
2022/03/07 00:04:16;;;;;;;19.08;8.88;;;;;;;-2.83;100.00;102801.59;4937390;28;20074;-70
2022/03/07 00:06:43;;;;;;;16.85;7.72;;;;;;;-2.82;100.00;102792.72;4918440;28;20075;-70
2022/03/07 00:09:08;;;;;;;19.90;7.25;;;;;;;-2.81;100.00;102808.47;4912143;28;20054;-70
2022/03/07 00:11:35;;;;;;;18.23;7.00;;;;;;;-2.78;100.00;102810.09;4937692;28;20058;-70
2022/03/07 00:14:01;;;;;;;16.52;7.35;;;;;;;-2.62;100.00;102810.19;4908548;28;20051;-70
2022/03/07 00:16:26;;;;;;;18.45;7.82;;;;;;;-2.62;100.00;102820.75;4923976;28;20039;-70
2022/03/07 00:18:52;;;;;;;14.00;7.70;;;;;;;-2.65;100.00;102813.84;4909208;28;20063;-70
2022/03/07 00:21:18;;;;;;;19.02;7.47;;;;;;;-2.74;100.00;102811.66;4922149;28;20035;-70
2022/03/07 00:23:43;;;;;;;14.65;7.35;;;;;;;-2.84;100.00;102811.28;4922068;28;23677;-68
2022/03/07 00:26:09;;;;;;;11.63;6.32;;;;;;;-2.95;100.00;102809.19;4923271;28;20106;-71
2022/03/07 00:28:35;;;;;;;15.93;7.50;;;;;;;-3.06;100.00;102815.91;4923617;28;20050;-71
2022/03/07 00:31:00;;;;;;;13.20;7.20;;;;;;;-3.13;100.00;102815.34;4919854;28;20105;-68
2022/03/07 00:33:26;;;;;;;13.73;7.07;;;;;;;-3.19;100.00;102821.81;4922479;28;20043;-68
2022/03/07 00:35:52;;;;;;;14.02;5.70;;;;;;;-3.25;100.00;102822.09;4920578;28;20073;-71
2022/03/07 00:38:17;;;;;;;15.85;6.30;;;;;;;-3.28;100.00;102832.78;4922234;28;20507;-71
2022/03/07 00:40:43;;;;;;;10.20;6.13;;;;;;;-3.18;100.00;102825.28;4922040;28;20070;-71
2022/03/07 00:43:08;;;;;;;13.00;6.60;;;;;;;-3.13;100.00;102820.63;4921666;28;20188;-71
2022/03/07 00:45:34;;;;;;;14.05;5.82;;;;;;;-3.12;100.00;102823.22;4905863;28;20038;-68
2022/03/07 00:48:00;;;;;;;14.15;6.95;;;;;;;-3.15;100.00;102818.09;4935427;28;20866;-68
2022/03/07 00:50:25;;;;;;;12.68;6.00;;;;;;;-3.16;100.00;102826.94;4924217;28;20042;-70
2022/03/07 00:52:51;;;;;;;19.67;7.53;;;;;;;-3.15;100.00;102828.63;4905615;28;20081;-70
2022/03/07 00:55:16;;;;;;;15.85;6.93;;;;;;;-3.21;100.00;102831.56;4927727;28;20067;-70
2022/03/07 00:57:41;;;;;;;15.10;6.75;;;;;;;-3.31;100.00;102830.28;4920062;28;20057;-70
2022/03/07 01:00:08;;;;;;;24.05;6.82;;;;;;;-3.37;100.00;102835.84;4926727;28;20028;-70
2022/03/07 01:02:33;;;;;;;18.35;7.43;;;;;;;-3.42;100.00;102836.06;4907946;28;20527;-71
2022/03/07 01:05:00;;;;;;;14.50;6.70;;;;;;;-3.42;100.00;102835.22;4936627;28;20050;-70
2022/03/07 01:07:27;;;;;;;14.00;7.30;;;;;;;-3.51;100.00;102843.56;4914770;28;20406;-70
2022/03/07 01:09:52;;;;;;;14.85;6.57;;;;;;;-3.58;100.00;102842.13;4906890;28;20610;-70
2022/03/07 01:12:18;;;;;;;19.23;6.50;;;;;;;-3.65;100.00;102839.81;4920741;28;20062;-70
2022/03/07 01:14:43;;;;;;;16.70;6.88;;;;;;;-3.66;100.00;102837.22;4906405;28;20089;-70
2022/03/07 01:17:08;;;;;;;14.57;6.47;;;;;;;-3.70;100.00;102841.78;4922126;28;20114;-70
2022/03/07 01:19:34;;;;;;;19.95;7.47;;;;;;;-3.64;100.00;102846.78;4905557;28;20066;-70
2022/03/07 01:21:59;;;;;;;12.07;6.90;;;;;;;-3.34;100.00;102846.25;4926169;28;20026;-70
2022/03/07 01:24:25;;;;;;;19.50;7.50;;;;;;;-3.12;100.00;102849.56;4905572;28;20494;-70
2022/03/07 01:26:50;;;;;;;15.95;6.82;;;;;;;-3.04;100.00;102848.34;4921333;28;20070;-70
2022/03/07 01:29:16;;;;;;;14.88;7.43;;;;;;;-3.09;100.00;102831.88;4920604;28;20074;-70
2022/03/07 01:31:41;;;;;;;12.90;7.00;;;;;;;-3.22;100.00;102843.03;4901825;28;20081;-70
2022/03/07 01:34:07;;;;;;;14.60;6.35;;;;;;;-3.32;100.00;102835.66;4917224;28;20042;-70
2022/03/07 01:36:33;;;;;;;13.90;6.63;;;;;;;-3.43;100.00;102834.38;4905166;28;20078;-70
2022/03/07 01:38:59;;;;;;;15.20;5.93;;;;;;;-3.50;100.00;102832.13;4921064;28;20035;-70
2022/03/07 01:41:24;;;;;;;16.92;6.97;;;;;;;-3.61;100.00;102830.84;4904055;28;22803;-70
2022/03/07 01:43:50;;;;;;;13.40;7.13;;;;;;;-3.68;100.00;102833.84;4920894;28;25167;-70
2022/03/07 01:46:15;;;;;;;12.30;7.03;;;;;;;-3.77;100.00;102824.56;4911505;28;20038;-70
2022/03/07 01:48:40;;;;;;;17.40;6.28;;;;;;;-3.83;100.00;102819.56;4918575;28;20027;-70
2022/03/07 01:51:07;;;;;;;13.52;6.28;;;;;;;-3.78;100.00;102822.03;4920904;28;20173;-70
2022/03/07 01:53:32;;;;;;;14.38;6.72;;;;;;;-3.82;100.00;102816.03;4905277;28;20047;-70
2022/03/07 01:55:58;;;;;;;12.05;6.00;;;;;;;-3.96;100.00;102808.78;4921995;28;20037;-70
2022/03/07 01:58:23;;;;;;;14.07;6.57;;;;;;;-3.91;100.00;102821.72;4905159;28;20493;-70
2022/03/07 02:00:49;;;;;;;11.77;6.32;;;;;;;-3.91;100.00;102826.97;4920723;28;20073;-70
2022/03/07 02:03:14;;;;;;;11.00;6.13;;;;;;;-3.96;100.00;102821.94;4904910;28;20062;-70
2022/03/07 02:05:45;;;;;;;15.73;7.75;;;;;;;-3.99;100.00;102818.59;4924836;28;20455;-70
2022/03/07 02:08:11;;;;;;;12.20;5.97;;;;;;;-4.02;100.00;102816.09;4917021;28;20168;-70
2022/03/07 02:10:37;;;;;;;12.05;6.75;;;;;;;-4.05;100.00;102821.50;4908480;28;20244;-70
2022/03/07 02:13:09;;;;;;;16.75;8.02;;;;;;;-4.04;100.00;102812.66;4922518;28;20061;-70
2022/03/07 02:15:35;;;;;;;13.98;7.32;;;;;;;-4.00;100.00;102816.88;4905734;28;20654;-70
2022/03/07 02:18:00;;;;;;;19.63;7.70;;;;;;;-4.02;100.00;102818.72;4922330;28;20039;-70
2022/03/07 02:20:26;;;;;;;14.07;7.40;;;;;;;-4.04;100.00;102810.03;4904140;28;20070;-70
2022/03/07 02:22:51;;;;;;;22.05;7.32;;;;;;;-4.13;100.00;102809.53;4919165;28;20230;-70
2022/03/07 02:25:17;;;;;;;16.23;6.65;;;;;;;-4.14;100.00;102814.84;4904454;28;20070;-70
2022/03/07 02:27:42;;;;;;;20.00;7.20;;;;;;;-4.16;100.00;102817.56;4920187;28;20045;-68
2022/03/07 02:30:09;;;;;;;18.63;8.13;;;;;;;-4.19;100.00;102806.31;4920400;28;20062;-68
2022/03/07 02:32:34;;;;;;;15.50;7.43;;;;;;;-4.22;100.00;102812.56;4910215;28;20059;-70
2022/03/07 02:35:00;;;;;;;23.77;7.97;;;;;;;-4.28;100.00;102812.88;4923727;28;20097;-70
2022/03/07 02:37:25;;;;;;;11.60;7.10;;;;;;;-4.31;100.00;102815.63;4908785;28;20063;-70
2022/03/07 02:39:50;;;;;;;18.00;8.23;;;;;;;-4.18;100.00;102818.56;4921555;28;20136;-70
2022/03/07 02:42:16;;;;;;;21.23;7.93;;;;;;;-4.08;100.00;102815.44;4906660;28;21261;-70
2022/03/07 02:44:41;;;;;;;13.45;7.70;;;;;;;-4.11;100.00;102819.97;4923838;28;20408;-70
2022/03/07 02:47:07;;;;;;;18.48;8.88;;;;;;;-4.20;100.00;102808.09;4908427;28;20674;-70
2022/03/07 02:49:32;;;;;;;19.02;7.90;;;;;;;-4.32;100.00;102813.91;4926298;28;20039;-70
2022/03/07 02:51:58;;;;;;;16.40;7.95;;;;;;;-4.36;100.00;102807.06;4926459;28;20454;-70
2022/03/07 02:54:23;;;;;;;15.00;8.35;;;;;;;-4.42;100.00;102804.69;4915049;28;20078;-70
2022/03/07 02:56:49;;;;;;;16.35;7.63;;;;;;;-4.46;100.00;102797.88;4926115;28;20126;-70
2022/03/07 02:59:14;;;;;;;19.27;8.23;;;;;;;-4.43;100.00;102803.00;4908016;28;20063;-69
2022/03/07 03:01:40;;;;;;;17.45;8.55;;;;;;;-4.41;100.00;102793.28;4924377;28;20058;-69
2022/03/07 03:04:05;;;;;;;15.70;7.28;;;;;;;-4.39;100.00;102786.16;4906507;28;20059;-69
2022/03/07 03:06:31;;;;;;;19.85;8.68;;;;;;;-4.36;100.00;102793.91;4923426;28;20122;-70
2022/03/07 03:08:56;;;;;;;15.73;7.68;;;;;;;-4.45;100.00;102794.34;4915566;28;20121;-69
2022/03/07 03:11:22;;;;;;;14.88;8.00;;;;;;;-4.54;100.00;102792.09;4918113;28;20126;-70
2022/03/07 03:13:47;;;;;;;21.13;8.15;;;;;;;-4.64;100.00;102783.75;4922404;28;20067;-70
2022/03/07 03:16:12;;;;;;;13.32;7.68;;;;;;;-4.63;100.00;102783.72;4907384;28;20055;-70
2022/03/07 03:18:38;;;;;;;13.10;7.88;;;;;;;-4.58;100.00;102786.97;4921707;28;20051;-70
2022/03/07 03:21:03;;;;;;;19.30;9.35;;;;;;;-4.46;100.00;102776.84;4906542;28;20063;-70
2022/03/07 03:23:29;;;;;;;18.33;7.93;;;;;;;-4.40;100.00;102787.09;4922833;28;20062;-70
2022/03/07 03:25:54;;;;;;;21.08;8.63;;;;;;;-4.38;100.00;102777.38;4906510;28;20069;-69
2022/03/07 03:28:21;;;;;;;20.40;7.97;;;;;;;-4.39;100.00;102773.88;4938171;28;20039;-69
2022/03/07 03:30:47;;;;;;;14.60;8.10;;;;;;;-4.42;100.00;102775.75;4924186;28;20061;-69
2022/03/07 03:33:13;;;;;;;16.10;8.25;;;;;;;-4.47;100.00;102781.25;4908453;28;20055;-70
2022/03/07 03:35:38;;;;;;;17.05;7.97;;;;;;;-4.59;100.00;102782.66;4927378;28;20050;-70
2022/03/07 03:38:05;;;;;;;23.25;9.43;;;;;;;-4.58;100.00;102783.50;4906649;28;20059;-69
2022/03/07 03:40:30;;;;;;;19.08;8.48;;;;;;;-4.60;100.00;102775.69;4922723;28;20038;-70
2022/03/07 03:42:56;;;;;;;17.33;7.70;;;;;;;-4.59;100.00;102777.38;4907182;28;20092;-70
2022/03/07 03:45:21;;;;;;;20.00;8.70;;;;;;;-4.51;100.00;102769.16;4923769;28;20039;-69
2022/03/07 03:47:46;;;;;;;17.45;9.60;;;;;;;-4.46;100.00;102771.56;4907028;28;20058;-69
2022/03/07 03:50:13;;;;;;;14.73;7.93;;;;;;;-4.49;100.00;102777.84;4938716;28;20045;-69
2022/03/07 03:52:40;;;;;;;19.42;9.00;;;;;;;-4.54;100.00;102784.22;4922831;28;21122;-69
2022/03/07 03:55:06;;;;;;;15.15;7.70;;;;;;;-4.65;100.00;102785.53;4905870;28;20055;-69
2022/03/07 03:57:32;;;;;;;17.48;8.75;;;;;;;-4.73;100.00;102779.75;4907435;28;20173;-69
2022/03/07 03:59:57;;;;;;;19.58;7.80;;;;;;;-4.80;100.00;102783.56;4906718;28;20046;-69
2022/03/07 04:02:23;;;;;;;13.90;8.55;;;;;;;-4.77;100.00;102783.44;4923597;28;20518;-69
2022/03/07 04:04:49;;;;;;;16.38;8.13;;;;;;;-4.79;100.00;102790.53;4907155;28;20436;-70
2022/03/07 04:07:14;;;;;;;16.92;8.10;;;;;;;-4.82;100.00;102798.56;4921832;28;20039;-69
2022/03/07 04:09:40;;;;;;;17.67;8.80;;;;;;;-4.83;100.00;102794.22;4932402;28;20039;-69
2022/03/07 04:12:06;;;;;;;13.50;8.20;;;;;;;-4.84;100.00;102800.41;4911857;28;20399;-69
2022/03/07 04:14:31;;;;;;;17.25;7.85;;;;;;;-4.84;100.00;102792.53;4922801;28;20455;-69
2022/03/07 04:16:57;;;;;;;16.15;8.07;;;;;;;-4.81;100.00;102803.75;4905916;28;20158;-69
2022/03/07 04:19:23;;;;;;;18.05;7.47;;;;;;;-4.82;100.00;102806.44;4922645;28;22807;-69
2022/03/07 04:21:48;;;;;;;19.60;8.25;;;;;;;-4.86;100.00;102807.50;4907885;28;20055;-69
2022/03/07 04:24:14;;;;;;;16.45;8.35;;;;;;;-4.92;100.00;102815.63;4924544;28;20720;-70
2022/03/07 04:26:41;;;;;;;13.45;7.03;;;;;;;-4.99;100.00;102806.28;4905770;28;20051;-70
2022/03/07 04:29:10;;;;;;;10.85;7.15;;;;;;;-5.08;100.00;102811.03;4921676;28;20039;-70
2022/03/07 04:31:39;;;;;;;21.65;8.32;;;;;;;-5.12;100.00;102809.44;4918898;28;20046;-69
2022/03/07 04:34:06;;;;;;;21.60;8.20;;;;;;;-5.09;100.00;102814.56;4908207;28;20176;-69
2022/03/07 04:36:33;;;;;;;17.48;7.70;;;;;;;-5.08;100.00;102821.53;4936363;28;21192;-68
2022/03/07 04:38:58;;;;;;;18.23;8.57;;;;;;;-5.00;100.00;102823.00;4904870;28;20047;-69
2022/03/07 04:41:25;;;;;;;16.02;8.10;;;;;;;-4.97;100.00;102822.88;4923563;28;20063;-69
2022/03/07 04:43:50;;;;;;;20.27;8.35;;;;;;;-4.95;100.00;102821.00;4907638;28;20055;-69
2022/03/07 04:46:16;;;;;;;21.63;8.20;;;;;;;-4.95;100.00;102818.38;4923762;28;20039;-69
2022/03/07 04:48:41;;;;;;;18.65;7.70;;;;;;;-4.93;100.00;102819.19;4907329;28;20054;-69
2022/03/07 04:51:06;;;;;;;17.35;8.50;;;;;;;-4.89;100.00;102826.03;4922269;28;20034;-69
2022/03/07 04:53:32;;;;;;;15.88;8.32;;;;;;;-4.87;100.00;102825.03;4920311;28;20038;-69
2022/03/07 04:55:57;;;;;;;15.73;8.10;;;;;;;-4.87;100.00;102825.03;4903640;28;20170;-69
2022/03/07 04:58:23;;;;;;;13.88;8.13;;;;;;;-4.91;100.00;102835.75;4924336;28;20043;-69
2022/03/07 05:00:49;;;;;;;15.40;7.38;;;;;;;-4.91;100.00;102841.03;4905338;28;20059;-69
2022/03/07 05:03:14;;;;;;;19.63;7.70;;;;;;;-4.93;100.00;102834.97;4921377;28;20043;-69
2022/03/07 05:05:39;;;;;;;14.82;8.27;;;;;;;-4.93;100.00;102833.19;4905397;28;20054;-69
2022/03/07 05:08:05;;;;;;;11.40;7.38;;;;;;;-4.94;100.00;102838.50;4921501;28;20035;-69
2022/03/07 05:10:31;;;;;;;13.48;8.27;;;;;;;-4.93;100.00;102832.31;4909328;28;20061;-69
2022/03/07 05:12:56;;;;;;;15.02;7.30;;;;;;;-4.91;100.00;102827.88;4920514;28;20031;-69
2022/03/07 05:15:22;;;;;;;13.73;7.90;;;;;;;-4.87;100.00;102826.81;4921356;28;20038;-71
2022/03/07 05:17:51;;;;;;;15.77;8.90;;;;;;;-4.82;100.00;102832.72;4903786;28;20055;-69
2022/03/07 05:20:17;;;;;;;15.25;7.43;;;;;;;-4.77;100.00;102830.78;4921879;28;20045;-69
2022/03/07 05:22:43;;;;;;;18.83;7.80;;;;;;;-4.76;100.00;102827.22;4902711;28;20078;-68
2022/03/07 05:25:10;;;;;;;13.85;7.70;;;;;;;-4.80;100.00;102825.66;4920050;28;20045;-70
2022/03/07 05:27:35;;;;;;;18.02;7.65;;;;;;;-4.83;100.00;102825.78;4903893;28;20047;-69
2022/03/07 05:30:02;;;;;;;14.50;8.35;;;;;;;-4.80;100.00;102831.75;4918300;28;20711;-69
2022/03/07 05:32:28;;;;;;;13.73;7.78;;;;;;;-4.78;100.00;102829.03;4903476;28;20066;-69
2022/03/07 05:34:53;;;;;;;16.70;7.60;;;;;;;-4.83;100.00;102816.09;4916838;28;21121;-68
2022/03/07 05:37:19;;;;;;;14.10;7.57;;;;;;;-4.89;100.00;102815.50;4934688;28;23906;-69
2022/03/07 05:39:44;;;;;;;17.45;9.32;;;;;;;-4.97;100.00;102807.09;4905105;28;20070;-69
2022/03/07 05:42:09;;;;;;;16.95;8.55;;;;;;;-4.96;100.00;102812.28;4922392;28;20114;-68
2022/03/07 05:44:35;;;;;;;13.65;8.45;;;;;;;-4.97;100.00;102817.59;4906149;28;20150;-68
2022/03/07 05:47:00;;;;;;;23.15;9.60;;;;;;;-4.99;100.00;102820.28;4921135;28;20046;-69
2022/03/07 05:49:26;;;;;;;20.17;9.00;;;;;;;-4.99;100.00;102822.91;4904211;28;20055;-68
2022/03/07 05:51:51;;;;;;;15.70;8.77;;;;;;;-5.03;100.00;102822.19;4921053;28;20042;-69
2022/03/07 05:54:16;;;;;;;16.85;8.70;;;;;;;-4.98;100.00;102832.53;4915328;28;20057;-69
2022/03/07 05:56:42;;;;;;;27.20;11.02;;;;;;;-5.01;100.00;102842.31;4908112;28;20155;-69
2022/03/07 05:59:08;;;;;;;18.70;10.57;;;;;;;-4.98;100.00;102837.78;4919317;28;20470;-69
2022/03/07 06:01:33;;;;;;;20.52;9.77;;;;;;;-4.85;100.00;102828.44;4904864;28;20066;-69
2022/03/07 06:03:59;;;;;;;17.45;9.73;;;;;;;-4.87;100.00;102825.03;4922938;28;20157;-69
2022/03/07 06:06:24;;;;;;;20.10;9.57;;;;;;;-4.88;100.00;102832.97;4905650;28;20295;-69
2022/03/07 06:08:50;;;;;;;25.08;11.30;;;;;;;-4.89;100.00;102820.75;4919821;28;20045;-70
2022/03/07 06:11:16;;;;;;;27.65;11.57;;;;;;;-4.88;100.00;102820.72;4904401;28;20085;-70
2022/03/07 06:13:41;;;;;;;25.63;11.63;;;;;;;-4.84;100.00;102829.31;4924820;28;20043;-69
2022/03/07 06:16:06;;;;;;;26.77;10.77;;;;;;;-4.78;100.00;102828.19;4935985;28;20046;-68
2022/03/07 06:18:32;;;;;;;19.35;10.73;;;;;;;-4.67;100.00;102825.97;4911552;28;20134;-67
2022/03/07 06:20:57;;;;;;;20.33;12.00;;;;;;;-4.57;100.00;102829.91;4920014;28;20084;-67
2022/03/07 06:23:23;;;;;;;23.60;12.23;;;;;;;-4.47;100.00;102827.75;4889407;28;20066;-68
2022/03/07 06:25:49;;;;;;;28.70;12.95;;;;;;;-4.40;100.00;102829.19;4920540;28;20057;-68
2022/03/07 06:28:15;;;;;;;25.95;11.88;;;;;;;-4.26;100.00;102829.44;4905853;28;20059;-68
2022/03/07 06:30:40;;;;;;;25.05;13.05;;;;;;;-4.07;100.00;102826.84;4915862;28;20047;-68
2022/03/07 06:33:06;;;;;;;30.10;15.20;;;;;;;-3.68;100.00;102829.41;4914715;28;20158;-68
2022/03/07 06:35:31;;;;;;;26.58;14.38;;;;;;;-3.20;100.00;102830.63;4910325;28;20055;-68
2022/03/07 06:37:56;;;;;;;28.75;15.95;;;;;;;-2.70;100.00;102836.97;4921375;28;20043;-68
2022/03/07 06:40:22;;;;;;;29.95;17.20;;;;;;;-2.41;100.00;102824.91;4908062;28;20055;-68
2022/03/07 06:42:48;;;;;;;27.58;16.52;;;;;;;-2.19;100.00;102814.91;4925843;28;20471;-68
2022/03/07 06:45:16;;;;;;;31.13;18.23;;;;;;;-1.87;100.00;102819.41;4906608;28;20146;-68
2022/03/07 06:47:43;;;;;;;37.50;18.33;;;;;;;-1.31;100.00;102818.88;4920537;28;20246;-68
2022/03/07 06:50:09;;;;;;;37.53;20.60;;;;;;;-0.67;100.00;102818.72;4906849;28;20253;-68
2022/03/07 06:52:35;;;;;;;39.35;21.88;;;;;;;0.07;100.00;102825.69;4919782;28;20032;-68
2022/03/07 06:55:00;;;;;;;43.05;22.50;;;;;;;1.09;100.00;102821.72;4919344;28;20066;-68
2022/03/07 06:57:26;;;;;;;37.33;21.15;;;;;;;1.99;100.00;102827.09;4904886;28;20055;-68
2022/03/07 06:59:51;;;;;;;41.30;19.73;;;;;;;2.67;100.00;102826.59;4919941;28;20041;-68
2022/03/07 07:02:17;;;;;;;34.45;19.98;;;;;;;3.33;100.00;102824.31;4903543;28;20162;-68
2022/03/07 07:04:43;;;;;;;32.28;18.70;;;;;;;3.55;100.00;102827.06;4920079;28;20362;-68
2022/03/07 07:07:09;;;;;;;30.23;18.10;;;;;;;3.48;100.00;102833.81;4906328;28;20059;-69
2022/03/07 07:09:34;;;;;;;26.73;15.10;;;;;;;3.29;100.00;102826.38;4919523;28;20523;-68
2022/03/07 07:12:00;;;;;;;24.13;15.20;;;;;;;3.34;100.00;102834.03;4907854;28;20031;-68
2022/03/07 07:14:25;;;;;;;24.83;15.48;;;;;;;3.35;100.00;102835.72;4917449;28;20066;-68
2022/03/07 07:16:51;;;;;;;19.23;13.63;;;;;;;3.24;100.00;102843.69;4922488;28;20027;-68
2022/03/07 07:19:16;;;;;;;20.15;12.98;;;;;;;2.96;100.00;102839.56;4904736;28;20078;-68
2022/03/07 07:21:42;;;;;;;25.35;13.63;;;;;;;2.91;100.00;102831.06;4922252;28;20487;-68
2022/03/07 07:24:08;;;;;;;27.38;14.27;;;;;;;2.81;100.00;102825.59;4873974;28;20510;-68
2022/03/07 07:26:33;;;;;;;29.75;14.40;;;;;;;2.83;100.00;102836.97;4922127;28;20039;-68
2022/03/07 07:28:59;;;;;;;29.42;14.20;;;;;;;2.87;100.00;102831.28;4904284;28;20043;-68
2022/03/07 07:31:24;;;;;;;25.25;13.25;;;;;;;2.89;100.00;102839.19;4905041;28;20037;-68
2022/03/07 07:33:50;;;;;;;28.95;14.60;;;;;;;3.06;100.00;102835.25;4907976;28;20055;-68
2022/03/07 07:36:15;;;;;;;36.63;13.82;;;;;;;3.44;100.00;102848.34;4916655;28;20784;-68
2022/03/07 07:38:41;;;;;;;37.00;14.77;;;;;;;4.09;100.00;102840.66;4917384;28;20043;-68
2022/03/07 07:41:07;;;;;;;27.38;13.40;;;;;;;4.88;100.00;102841.38;4901810;28;20181;-68
2022/03/07 07:43:33;;;;;;;19.15;11.90;;;;;;;5.87;100.00;102840.97;4921433;28;23610;-68
2022/03/07 07:45:59;;;;;;;16.95;8.70;;;;;;;6.64;100.00;102847.63;4902986;28;20062;-69
2022/03/07 07:48:24;;;;;;;16.40;7.40;;;;;;;7.08;100.00;102845.41;4924963;28;20066;-69
2022/03/07 07:50:49;;;;;;;14.80;6.93;;;;;;;7.41;100.00;102841.44;4906977;28;20051;-69
2022/03/07 07:53:15;;;;;;;14.02;6.18;;;;;;;7.35;100.00;102839.31;4923795;28;20042;-69
2022/03/07 07:55:40;;;;;;;11.52;6.00;;;;;;;7.39;100.00;102838.03;4920413;28;20046;-69
2022/03/07 07:58:06;;;;;;;37.75;7.72;;;;;;;7.43;100.00;102839.44;4907548;28;20054;-69
2022/03/07 08:00:31;;;;;;;23.83;6.28;;;;;;;7.58;100.00;102842.53;4935305;28;20098;-69
2022/03/07 08:02:57;;;;;;;13.00;5.32;;;;;;;7.87;100.00;102842.47;4905292;28;20081;-69
2022/03/07 08:05:22;;;;;;;9.98;4.47;;;;;;;7.95;100.00;102839.06;4922904;28;20030;-69
2022/03/07 08:07:48;;;;;;;12.52;5.10;;;;;;;8.19;100.00;102842.06;4907647;28;20058;-69
2022/03/07 08:10:15;;;;;;;10.07;5.20;;;;;;;8.41;100.00;102856.13;4922514;28;20058;-69
2022/03/07 08:12:40;;;;;;;12.55;4.82;;;;;;;8.57;100.00;102845.56;4908697;28;20047;-69
2022/03/07 08:15:11;;;;;;;10.70;4.18;;;;;;;8.63;100.00;102852.16;4924494;28;20133;-69
2022/03/07 08:17:49;;;;;;;12.18;5.07;;;;;;;8.70;100.00;102848.72;4923765;28;20053;-69
2022/03/07 08:20:20;;;;;;;8.77;3.97;;;;;;;8.86;100.00;102853.44;4907277;28;20082;-70
2022/03/07 08:22:45;;;;;;;9.93;3.75;;;;;;;8.69;100.00;102854.25;4923621;28;20166;-70
2022/03/07 08:25:11;;;;;;;15.05;3.65;;;;;;;8.79;100.00;102855.88;4921232;28;20046;-70
2022/03/07 08:27:37;;;;;;;8.15;3.10;;;;;;;8.47;100.00;102852.84;4915490;28;20062;-69
2022/03/07 08:30:07;;;;;;;9.15;4.28;;;;;;;8.55;100.00;102858.28;4905007;28;20061;-69
2022/03/07 08:32:36;;;;;;;10.32;3.53;;;;;;;8.72;100.00;102849.44;4921803;28;20039;-69
2022/03/07 08:35:02;;;;;;;11.43;3.45;;;;;;;8.67;100.00;102846.38;4897925;28;20052;-69
2022/03/07 08:37:27;;;;;;;12.80;3.70;;;;;;;8.72;100.00;102848.59;4941528;28;20034;-70
2022/03/07 08:39:52;;;;;;;9.20;3.58;;;;;;;8.99;100.00;102851.22;4924130;28;20035;-69
2022/03/07 08:42:19;;;;;;;6.88;3.50;;;;;;;9.03;100.00;102851.75;4918973;28;21086;-69
2022/03/07 08:44:45;;;;;;;10.60;3.95;;;;;;;9.22;100.00;102851.59;4936277;28;20039;-69
2022/03/07 08:47:10;;;;;;;9.80;3.30;;;;;;;9.74;100.00;102851.66;4906648;28;20539;-69
2022/03/07 08:49:36;;;;;;;6.15;2.78;;;;;;;9.65;88.41;102849.94;4921713;28;20038;-70
2022/03/07 08:52:02;;;;;;;7.55;3.15;;;;;;;9.71;95.72;102854.66;4903887;28;20070;-69
2022/03/07 08:54:27;;;;;;;11.77;3.47;;;;;;;10.31;100.00;102847.59;4923798;28;20046;-69
2022/03/07 08:56:53;;;;;;;15.77;4.50;;;;;;;10.47;100.00;102850.38;4905167;28;20049;-69
2022/03/07 08:59:24;;;;;;;13.65;4.80;;;;;;;10.64;81.43;102854.81;4905857;28;20078;-69
2022/03/07 09:01:50;;;;;;;11.43;3.45;;;;;;;10.65;91.68;102851.09;4938624;28;20039;-68
2022/03/07 09:04:15;;;;;;;8.68;3.08;;;;;;;10.62;77.49;102851.41;4905871;28;20059;-69
2022/03/07 09:06:41;;;;;;;11.75;3.30;;;;;;;10.63;78.66;102853.09;4923168;28;20853;-69
2022/03/07 09:09:07;;;;;;;17.10;5.85;;;;;;;10.82;89.12;102853.84;4910004;28;20162;-69
2022/03/07 09:11:32;;;;;;;17.70;4.53;;;;;;;10.73;71.70;102859.19;4921426;28;20043;-69
2022/03/07 09:13:58;;;;;;;8.88;3.30;;;;;;;11.09;72.07;102849.97;4921519;28;20141;-69
2022/03/07 09:16:23;;;;;;;13.25;4.90;;;;;;;10.82;85.96;102856.53;4924168;28;20038;-69
2022/03/07 09:18:49;;;;;;;8.82;3.80;;;;;;;10.73;72.40;102848.41;4917217;28;20031;-70
2022/03/07 09:21:14;;;;;;;6.43;2.92;;;;;;;10.58;79.23;102847.38;4912700;28;20618;-70
2022/03/07 09:23:39;;;;;;;13.52;3.17;;;;;;;10.87;87.87;102849.63;4904325;28;20061;-69
2022/03/07 09:26:06;;;;;;;10.32;2.00;;;;;;;10.96;76.09;102850.50;4905713;28;20055;-69
2022/03/07 09:28:33;;;;;;;9.80;2.50;;;;;;;11.35;69.90;102858.78;4926598;28;20507;-70
2022/03/07 09:30:59;;;;;;;7.63;2.00;;;;;;;11.34;81.06;102850.88;4903678;28;20063;-69
2022/03/07 09:33:25;;;;;;;6.70;1.73;;;;;;;11.02;83.08;102855.22;4920454;28;20126;-69
2022/03/07 09:35:51;;;;;;;9.55;2.83;;;;;;;10.60;79.61;102847.19;4906487;28;20118;-71
2022/03/07 09:38:16;;;;;;;10.30;1.88;;;;;;;10.70;88.09;102856.81;4921302;28;20047;-71
2022/03/07 09:40:42;;;;;;;9.25;2.45;;;;;;;10.86;90.33;102847.94;4911295;28;20045;-70
2022/03/07 09:43:08;;;;;;;9.68;1.77;;;;;;;11.26;81.04;102848.97;4907058;28;20082;-70
2022/03/07 09:45:34;;;;;;;7.03;2.10;;;;;;;11.01;74.00;102840.03;4920401;28;20038;-69
2022/03/07 09:48:00;;;;;;;5.45;1.95;;;;;;;10.80;76.95;102847.75;4905934;28;20186;-69
2022/03/07 09:50:26;;;;;;;9.07;2.40;;;;;;;10.93;82.86;102837.34;4933862;28;20031;-69
2022/03/07 09:52:54;;;;;;;8.52;2.58;;;;;;;10.94;85.16;102833.63;4902209;28;20561;-69
2022/03/07 09:55:20;;;;;;;9.98;2.25;;;;;;;10.86;85.11;102836.31;4918507;28;20163;-69
2022/03/07 09:57:46;;;;;;;9.35;2.20;;;;;;;10.99;89.89;102836.69;4910047;28;20505;-70
2022/03/07 10:00:13;;;;;;;9.10;2.38;;;;;;;10.59;80.17;102834.72;4925305;28;20039;-70
2022/03/07 10:02:38;;;;;;;8.02;2.33;;;;;;;10.54;89.46;102839.78;4921160;28;20086;-70
2022/03/07 10:05:04;;;;;;;8.50;2.15;;;;;;;10.44;90.56;102839.91;4904337;28;20051;-69
2022/03/07 10:07:30;;;;;;;7.32;2.10;;;;;;;10.51;85.96;102833.69;4904489;28;20632;-70
2022/03/07 10:10:08;;;;;;;7.97;2.40;;;;;;;10.72;84.53;102840.50;4905426;28;20146;-70
2022/03/07 10:12:34;;;;;;;10.07;2.83;;;;;;;10.95;80.49;102829.91;4921692;28;20447;-70
2022/03/07 10:15:11;;;;;;;10.38;2.95;;;;;;;11.12;72.13;102839.69;4906388;28;20051;-70
2022/03/07 10:17:49;;;;;;;7.60;2.30;;;;;;;10.40;73.14;102849.34;4921388;28;20093;-71
2022/03/07 10:20:18;;;;;;;8.52;2.80;;;;;;;9.98;89.25;102839.34;4904415;28;20051;-70
2022/03/07 10:22:47;;;;;;;11.95;2.72;;;;;;;10.27;93.15;102837.16;4920246;28;20035;-70
2022/03/07 10:25:12;;;;;;;8.88;2.70;;;;;;;11.01;75.41;102833.81;4912854;28;20085;-71
2022/03/07 10:27:42;;;;;;;15.07;2.80;;;;;;;10.40;73.75;102833.16;4914082;28;20110;-70
2022/03/07 10:30:17;;;;;;;10.30;2.92;;;;;;;10.55;86.72;102838.78;4925972;28;20216;-70
2022/03/07 10:32:50;;;;;;;11.05;2.55;;;;;;;10.21;85.05;102826.16;4907155;28;20054;-69
2022/03/07 10:35:47;;;;;;;13.55;2.50;;;;;;;10.40;85.63;102819.69;4921565;28;20035;-70
2022/03/07 10:38:15;;;;;;;12.10;3.20;;;;;;;10.92;73.48;102823.03;4891543;28;20141;-69
2022/03/07 10:40:52;;;;;;;8.40;2.90;;;;;;;11.44;70.01;102797.53;4903167;28;20542;-73
2022/03/07 10:43:18;;;;;;;10.02;3.13;;;;;;;12.58;63.84;102824.19;4909151;28;20058;-74
2022/03/07 10:45:50;;;;;;;7.72;3.05;;;;;;;12.70;54.55;102812.94;4904852;28;22684;-74
2022/03/07 10:48:15;;;;;;;9.95;3.78;;;;;;;12.96;55.39;102818.03;4917305;28;20058;-73
2022/03/07 10:50:47;;;;;;;8.25;2.90;;;;;;;12.93;52.65;102812.97;4924736;28;20035;-73
2022/03/07 10:53:13;;;;;;;9.10;2.92;;;;;;;13.11;54.62;102814.34;4906491;28;20051;-73
2022/03/07 10:55:38;;;;;;;8.80;2.83;;;;;;;12.85;55.06;102808.47;4923942;28;20101;-72
2022/03/07 10:58:12;;;;;;;10.05;4.03;;;;;;;12.68;55.74;102812.31;4925665;28;20089;-72
2022/03/07 11:00:56;;;;;;;7.57;3.38;;;;;;;12.93;55.90;102813.81;4913062;28;20285;-72
2022/03/07 11:03:30;;;;;;;11.15;3.30;;;;;;;12.29;53.75;102802.38;4943265;28;20158;-72
2022/03/07 11:05:57;;;;;;;9.57;3.53;;;;;;;12.33;54.34;102806.41;4912011;28;20490;-72
2022/03/07 11:08:23;;;;;;;8.77;3.25;;;;;;;12.38;53.80;102809.41;4923960;28;20100;-72